Time;durP1;ratioP1;P1;durP2;ratioP2;P2;SDS_P1;SDS_P2;PMS_P1;PMS_P2;Temp;Humidity;BMP_temperature;BMP_pressure;BME280_temperature;BME280_humidity;BME280_pressure;Samples;Min_cycle;Max_cycle;Signal;HPM_P1;HPM_P2
2023/09/26 00:01:44;;;;;;;;;;;;;;;13.48;91.25;102137.25;5008253;28;1455;-83
2023/09/26 00:04:09;;;;;;;;;;;;;;;13.49;91.42;102138.09;5004891;28;1143;-81
2023/09/26 00:06:34;;;;;;;;;;;;;;;13.45;91.35;102132.25;5006340;28;1143;-81
2023/09/26 00:09:00;;;;;;;;;;;;;;;13.43;91.61;102122.91;5011176;28;1302;-82
2023/09/26 00:11:25;;;;;;;;;;;;;;;13.41;91.40;102120.38;5004372;28;1521;-82
2023/09/26 00:13:50;;;;;;;;;;;;;;;13.41;91.58;102127.38;5018890;28;1569;-82
2023/09/26 00:16:16;;;;;;;;;;;;;;;13.39;91.63;102121.44;5011679;28;1975;-80
2023/09/26 00:18:42;;;;;;;;;;;;;;;13.36;91.68;102117.31;5018560;28;1331;-82
2023/09/26 00:21:08;;;;;;;;;;;;;;;13.34;91.72;102124.38;5018360;28;1355;-83
2023/09/26 00:23:33;;;;;;;;;;;;;;;13.33;91.74;102127.94;5019367;28;1402;-82
2023/09/26 00:25:59;;;;;;;;;;;;;;;13.33;91.65;102125.34;5015258;28;1126;-82
2023/09/26 00:28:24;;;;;;;;;;;;;;;13.32;92.05;102125.44;5030884;28;1099;-78
2023/09/26 00:30:49;;;;;;;;;;;;;;;13.29;92.03;102116.91;5020072;28;1171;-81
2023/09/26 00:33:15;;;;;;;;;;;;;;;13.28;91.89;102115.25;5023682;28;1189;-82
2023/09/26 00:35:40;;;;;;;;;;;;;;;13.26;92.39;102111.91;5031831;28;1927;-82
2023/09/26 00:38:05;;;;;;;;;;;;;;;13.28;92.24;102120.44;5022351;28;1425;-82
2023/09/26 00:40:30;;;;;;;;;;;;;;;13.28;92.25;102124.81;5012373;28;1074;-81
2023/09/26 00:42:58;;;;;;;;;;;;;;;13.24;92.29;102121.59;5012329;28;1090;-82
2023/09/26 00:45:23;;;;;;;;;;;;;;;13.23;92.44;102132.97;5011916;28;1174;-81
2023/09/26 00:47:48;;;;;;;;;;;;;;;13.25;92.42;102136.31;5014001;28;1500;-81
2023/09/26 00:50:14;;;;;;;;;;;;;;;13.28;92.48;102140.47;5014945;28;1504;-82
2023/09/26 00:52:44;;;;;;;;;;;;;;;13.26;92.64;102127.56;5009434;28;1054;-82
2023/09/26 00:55:09;;;;;;;;;;;;;;;13.26;92.66;102117.13;5011871;28;1075;-82
2023/09/26 00:57:35;;;;;;;;;;;;;;;13.24;92.80;102118.16;5010109;28;1894;-82
2023/09/26 01:00:02;;;;;;;;;;;;;;;13.22;92.77;102110.47;5020197;28;1006;-80
2023/09/26 01:02:27;;;;;;;;;;;;;;;13.22;93.18;102120.91;5007893;28;1124;-81
2023/09/26 01:04:52;;;;;;;;;;;;;;;13.20;93.03;102112.34;5023999;28;1016;-82
2023/09/26 01:07:18;;;;;;;;;;;;;;;13.18;93.07;102109.00;5013211;28;1056;-82
2023/09/26 01:09:43;;;;;;;;;;;;;;;13.20;93.35;102109.72;5033128;28;1135;-81
2023/09/26 01:12:08;;;;;;;;;;;;;;;13.22;93.41;102094.84;5017374;28;1427;-81
2023/09/26 01:14:34;;;;;;;;;;;;;;;13.25;93.51;102099.84;5013874;28;1432;-82
2023/09/26 01:16:59;;;;;;;;;;;;;;;13.29;93.27;102095.22;5016622;28;1973;-82
2023/09/26 01:19:25;;;;;;;;;;;;;;;13.31;93.57;102097.72;5020816;28;1181;-81
2023/09/26 01:21:50;;;;;;;;;;;;;;;13.35;93.42;102099.16;5021087;28;1280;-82
2023/09/26 01:24:17;;;;;;;;;;;;;;;13.35;93.23;102099.16;5015995;28;1175;-81
2023/09/26 01:26:42;;;;;;;;;;;;;;;13.34;93.59;102113.13;5030413;28;1439;-80
2023/09/26 01:29:10;;;;;;;;;;;;;;;13.34;93.54;102111.34;5020424;28;1441;-80
2023/09/26 01:31:35;;;;;;;;;;;;;;;13.35;93.73;102114.78;5008337;28;2159;-82
2023/09/26 01:34:02;;;;;;;;;;;;;;;13.33;93.39;102112.31;5027144;28;1257;-80
2023/09/26 01:36:27;;;;;;;;;;;;;;;13.34;93.63;102116.56;5028264;28;1871;-82
2023/09/26 01:38:53;;;;;;;;;;;;;;;13.35;93.76;102122.59;5011642;28;1225;-81
2023/09/26 01:41:18;;;;;;;;;;;;;;;13.36;93.26;102116.44;5021432;28;1320;-82
2023/09/26 01:43:43;;;;;;;;;;;;;;;13.36;93.49;102116.44;5017099;28;1091;-81
2023/09/26 01:46:09;;;;;;;;;;;;;;;13.35;93.50;102109.56;5009614;28;1330;-82
2023/09/26 01:48:34;;;;;;;;;;;;;;;13.32;94.02;102104.59;5008161;28;1308;-82
2023/09/26 01:50:59;;;;;;;;;;;;;;;13.31;93.71;102097.72;5016908;28;1435;-82
2023/09/26 01:53:25;;;;;;;;;;;;;;;13.28;93.90;102094.38;5010211;28;1565;-81
2023/09/26 01:55:50;;;;;;;;;;;;;;;13.31;93.67;102097.72;5012646;28;1910;-80
2023/09/26 01:58:15;;;;;;;;;;;;;;;13.29;93.87;102096.03;5009402;28;1225;-82
2023/09/26 02:00:40;;;;;;;;;;;;;;;13.29;93.78;102101.25;5008714;28;1208;-81
2023/09/26 02:03:05;;;;;;;;;;;;;;;13.29;93.84;102101.25;5014221;28;1172;-80
2023/09/26 02:05:31;;;;;;;;;;;;;;;13.29;93.87;102106.47;5030144;28;1575;-80
2023/09/26 02:07:56;;;;;;;;;;;;;;;13.31;93.52;102108.16;5039580;28;1119;-78
2023/09/26 02:10:21;;;;;;;;;;;;;;;13.30;93.68;102102.09;5045344;28;1108;-79
2023/09/26 02:12:48;;;;;;;;;;;;;;;13.27;93.75;102105.75;5041608;28;1010;-81
2023/09/26 02:15:14;;;;;;;;;;;;;;;13.23;93.76;102095.66;5021861;28;1158;-80
2023/09/26 02:17:40;;;;;;;;;;;;;;;13.18;93.60;102095.13;5024013;28;1898;-83
2023/09/26 02:20:12;;;;;;;;;;;;;;;13.13;93.97;102100.69;5022153;28;1074;-82
2023/09/26 02:22:38;;;;;;;;;;;;;;;13.10;93.99;102100.06;5019002;28;1224;-81
2023/09/26 02:25:04;;;;;;;;;;;;;;;13.07;93.99;102090.69;5019107;28;1460;-82
2023/09/26 02:27:30;;;;;;;;;;;;;;;13.04;93.88;102090.94;5012211;28;1307;-82
2023/09/26 02:29:55;;;;;;;;;;;;;;;13.00;94.00;102089.47;5012053;28;1224;-82
2023/09/26 02:32:20;;;;;;;;;;;;;;;12.96;93.89;102094.09;5020791;28;1154;-82
2023/09/26 02:34:45;;;;;;;;;;;;;;;12.93;94.31;102089.09;5011275;28;1349;-81
2023/09/26 02:37:11;;;;;;;;;;;;;;;12.92;94.33;102076.19;5015242;28;2069;-82
2023/09/26 02:39:36;;;;;;;;;;;;;;;12.90;94.44;102078.06;5014894;28;1287;-79
2023/09/26 02:42:01;;;;;;;;;;;;;;;12.89;94.59;102076.38;5021719;28;1181;-80
2023/09/26 02:44:26;;;;;;;;;;;;;;;12.89;94.65;102076.38;5016446;28;1162;-82
2023/09/26 02:46:51;;;;;;;;;;;;;;;12.87;94.75;102068.69;5007568;28;1285;-81
2023/09/26 02:49:17;;;;;;;;;;;;;;;12.86;94.64;102066.22;5012772;28;1186;-82
2023/09/26 02:51:42;;;;;;;;;;;;;;;12.85;94.84;102064.56;5018034;28;1157;-82
2023/09/26 02:54:07;;;;;;;;;;;;;;;12.84;94.38;102065.47;5021549;28;1348;-83
2023/09/26 02:56:33;;;;;;;;;;;;;;;12.81;94.67;102063.94;5016268;28;1965;-82
2023/09/26 02:58:58;;;;;;;;;;;;;;;12.77;94.74;102058.09;5012076;28;1217;-82
2023/09/26 03:01:23;;;;;;;;;;;;;;;12.76;94.92;102056.44;5031977;28;1590;-82
2023/09/26 03:03:48;;;;;;;;;;;;;;;12.74;94.81;102053.13;5010561;28;1165;-82
2023/09/26 03:06:14;;;;;;;;;;;;;;;12.73;94.75;102051.47;5010483;28;1157;-82
2023/09/26 03:08:39;;;;;;;;;;;;;;;12.74;94.82;102042.72;5017726;28;1336;-82
2023/09/26 03:11:04;;;;;;;;;;;;;;;12.73;94.82;102056.69;5003753;28;1336;-81
2023/09/26 03:13:33;;;;;;;;;;;;;;;12.73;94.50;102061.88;5016055;28;1066;-81
2023/09/26 03:15:58;;;;;;;;;;;;;;;12.71;94.62;102050.72;5005812;28;1896;-82
2023/09/26 03:18:25;;;;;;;;;;;;;;;12.68;94.54;102047.53;5029630;28;1207;-81
2023/09/26 03:20:50;;;;;;;;;;;;;;;12.65;94.63;102053.75;5010835;28;1108;-81
2023/09/26 03:23:15;;;;;;;;;;;;;;;12.63;95.19;102049.63;5017660;28;1553;-81
2023/09/26 03:25:40;;;;;;;;;;;;;;;12.60;95.40;102055.84;5013812;28;1602;-81
2023/09/26 03:28:05;;;;;;;;;;;;;;;12.59;95.06;102049.00;5017365;28;1364;-81
2023/09/26 03:30:31;;;;;;;;;;;;;;;12.59;94.91;102041.19;5018797;28;1289;-82
2023/09/26 03:32:56;;;;;;;;;;;;;;;12.57;95.45;102043.06;5009179;28;1222;-82
2023/09/26 03:35:21;;;;;;;;;;;;;;;12.57;95.01;102035.28;5016601;28;1229;-82
2023/09/26 03:37:46;;;;;;;;;;;;;;;12.56;95.13;102040.56;5004506;28;1987;-82
2023/09/26 03:40:12;;;;;;;;;;;;;;;12.55;95.15;102046.72;5020333;28;1292;-79
2023/09/26 03:42:37;;;;;;;;;;;;;;;12.53;95.15;102041.63;5012319;28;1631;-82
2023/09/26 03:45:02;;;;;;;;;;;;;;;12.52;95.81;102034.75;5032733;28;1272;-78
2023/09/26 03:47:28;;;;;;;;;;;;;;;12.48;95.41;102044.53;5011614;28;1302;-82
2023/09/26 03:49:53;;;;;;;;;;;;;;;12.48;95.47;102052.34;5010800;28;1463;-82
2023/09/26 03:52:18;;;;;;;;;;;;;;;12.46;95.54;102043.81;5020479;28;1292;-80
2023/09/26 03:54:43;;;;;;;;;;;;;;;12.49;95.68;102042.75;5024092;28;1113;-82
2023/09/26 03:57:09;;;;;;;;;;;;;;;12.48;95.61;102046.31;5015107;28;1899;-82
2023/09/26 03:59:34;;;;;;;;;;;;;;;12.46;96.15;102043.00;5034192;28;1160;-82
2023/09/26 04:01:59;;;;;;;;;;;;;;;12.45;95.79;102041.34;5029640;28;1106;-82
2023/09/26 04:04:24;;;;;;;;;;;;;;;12.42;95.96;102041.53;5013823;28;1142;-81
2023/09/26 04:06:49;;;;;;;;;;;;;;;12.39;96.08;102032.19;5018738;28;1090;-82
2023/09/26 04:09:14;;;;;;;;;;;;;;;12.38;95.73;102032.28;5019822;28;1102;-82
2023/09/26 04:11:40;;;;;;;;;;;;;;;12.36;96.05;102037.59;5022680;28;1119;-80
2023/09/26 04:14:05;;;;;;;;;;;;;;;12.36;96.27;102039.38;5018142;28;1162;-82
2023/09/26 04:16:30;;;;;;;;;;;;;;;12.35;95.97;102035.09;5011887;28;1894;-82
2023/09/26 04:18:56;;;;;;;;;;;;;;;12.35;96.12;102035.09;5013030;28;1197;-82
2023/09/26 04:21:21;;;;;;;;;;;;;;;12.33;96.72;102031.75;5019163;28;1201;-80
2023/09/26 04:23:46;;;;;;;;;;;;;;;12.30;96.35;102026.78;5017322;28;1113;-81
2023/09/26 04:26:14;;;;;;;;;;;;;;;12.27;96.84;102019.19;5013339;28;1238;-82
2023/09/26 04:28:43;;;;;;;;;;;;;;;12.25;96.76;102023.66;5025914;28;1361;-82
2023/09/26 04:31:18;;;;;;;;;;;;;;;12.20;96.62;102022.22;5025416;28;1304;-82
2023/09/26 04:33:44;;;;;;;;;;;;;;;12.18;97.23;102013.69;5017287;28;985;-82
2023/09/26 04:36:09;;;;;;;;;;;;;;;12.19;96.91;102012.75;5014947;28;1957;-82
2023/09/26 04:38:35;;;;;;;;;;;;;;;12.18;97.11;102013.69;5024329;28;1314;-82
2023/09/26 04:41:02;;;;;;;;;;;;;;;12.20;96.76;102010.97;5023388;28;1590;-81
2023/09/26 04:43:27;;;;;;;;;;;;;;;12.20;96.53;102017.00;5023981;28;1169;-81
2023/09/26 04:45:53;;;;;;;;;;;;;;;12.24;97.16;102012.44;5024626;28;1276;-81
2023/09/26 04:48:18;;;;;;;;;;;;;;;12.27;96.59;102012.22;5026309;28;1220;-82
2023/09/26 04:50:43;;;;;;;;;;;;;;;12.29;96.76;101999.13;5027401;28;1506;-81
2023/09/26 04:53:08;;;;;;;;;;;;;;;12.31;96.75;101986.81;5016696;28;1300;-80
2023/09/26 04:55:35;;;;;;;;;;;;;;;12.31;97.04;101999.84;5041604;28;1561;-82
2023/09/26 04:58:00;;;;;;;;;;;;;;;12.34;96.72;102002.22;5022587;28;1907;-81
2023/09/26 05:00:27;;;;;;;;;;;;;;;12.35;96.50;101998.69;5023622;28;1471;-82
2023/09/26 05:02:52;;;;;;;;;;;;;;;12.36;96.38;102005.53;5014880;28;1149;-82
2023/09/26 05:05:19;;;;;;;;;;;;;;;12.37;96.87;102002.00;5013960;28;1560;-81
2023/09/26 05:07:44;;;;;;;;;;;;;;;12.36;96.43;101989.94;5029198;28;1376;-82
2023/09/26 05:10:13;;;;;;;;;;;;;;;12.37;96.83;101996.81;5016516;28;1231;-82
2023/09/26 05:12:40;;;;;;;;;;;;;;;12.35;97.08;101993.47;5018065;28;1295;-81
2023/09/26 05:15:12;;;;;;;;;;;;;;;12.30;96.97;102005.97;5016539;28;1348;-80
2023/09/26 05:17:38;;;;;;;;;;;;;;;12.20;96.43;102001.41;5015721;28;1956;-82
2023/09/26 05:20:04;;;;;;;;;;;;;;;12.17;96.63;102001.63;5017107;28;1340;-82
2023/09/26 05:22:30;;;;;;;;;;;;;;;12.17;97.29;102001.63;5009289;28;1181;-81
2023/09/26 05:24:55;;;;;;;;;;;;;;;12.18;96.62;101987.69;5013403;28;1310;-82
2023/09/26 05:27:20;;;;;;;;;;;;;;;12.21;96.71;101997.03;5015164;28;1204;-82
2023/09/26 05:29:45;;;;;;;;;;;;;;;12.22;97.09;101994.34;5022735;28;1216;-82
2023/09/26 05:32:10;;;;;;;;;;;;;;;12.25;96.73;101992.47;5010245;28;1084;-79
2023/09/26 05:34:36;;;;;;;;;;;;;;;12.27;97.29;102000.97;5012083;28;1606;-82
2023/09/26 05:37:01;;;;;;;;;;;;;;;12.27;96.72;102006.19;5006333;28;1958;-82
2023/09/26 05:39:26;;;;;;;;;;;;;;;12.27;97.11;102006.19;5001502;28;1558;-82
2023/09/26 05:41:51;;;;;;;;;;;;;;;12.27;96.96;102000.97;5007988;28;1598;-81
2023/09/26 05:44:17;;;;;;;;;;;;;;;12.29;97.18;101999.13;5022720;28;1292;-81
2023/09/26 05:46:43;;;;;;;;;;;;;;;12.29;96.92;102006.91;5018164;28;1151;-82
2023/09/26 05:49:08;;;;;;;;;;;;;;;12.28;96.83;102006.09;5024245;28;1343;-82
2023/09/26 05:51:34;;;;;;;;;;;;;;;12.27;97.02;102011.38;5020823;28;1340;-82
2023/09/26 05:53:59;;;;;;;;;;;;;;;12.28;96.85;102013.06;5003175;28;1304;-82
2023/09/26 05:56:24;;;;;;;;;;;;;;;12.28;96.64;102007.88;5016071;28;1894;-82
2023/09/26 05:58:49;;;;;;;;;;;;;;;12.29;96.56;102009.53;5002295;28;1328;-82
2023/09/26 06:01:14;;;;;;;;;;;;;;;12.31;96.74;102007.63;5017162;28;1235;-81
2023/09/26 06:03:40;;;;;;;;;;;;;;;12.34;97.06;102004.84;5014578;28;1444;-82
2023/09/26 06:06:05;;;;;;;;;;;;;;;12.33;96.62;102014.41;5017896;28;1230;-81
2023/09/26 06:08:31;;;;;;;;;;;;;;;12.36;96.82;102010.75;5017235;28;1011;-81
2023/09/26 06:10:56;;;;;;;;;;;;;;;12.37;96.66;102008.03;5015210;28;1205;-81
2023/09/26 06:13:21;;;;;;;;;;;;;;;12.39;96.76;102015.75;5009345;28;1330;-81
2023/09/26 06:15:47;;;;;;;;;;;;;;;12.39;96.99;102015.75;5013953;28;1959;-82
2023/09/26 06:18:12;;;;;;;;;;;;;;;12.39;96.80;102010.56;5015386;28;1216;-82
2023/09/26 06:20:38;;;;;;;;;;;;;;;12.40;96.46;102012.22;5017628;28;1257;-81
2023/09/26 06:23:04;;;;;;;;;;;;;;;12.40;96.74;102017.41;5009194;28;1387;-81
2023/09/26 06:25:29;;;;;;;;;;;;;;;12.40;97.03;102007.00;5002185;28;1415;-82
2023/09/26 06:27:55;;;;;;;;;;;;;;;12.40;96.62;102017.41;5023736;28;1422;-81
2023/09/26 06:30:20;;;;;;;;;;;;;;;12.40;97.20;102014.81;5017412;28;1295;-81
2023/09/26 06:32:45;;;;;;;;;;;;;;;12.40;97.13;102023.44;5004986;28;1001;-81
2023/09/26 06:35:11;;;;;;;;;;;;;;;12.41;97.23;102024.28;5011929;28;1252;-82
2023/09/26 06:37:36;;;;;;;;;;;;;;;12.40;97.06;102020.84;5007916;28;1918;-81
2023/09/26 06:40:04;;;;;;;;;;;;;;;12.41;96.73;102019.06;5009344;28;1186;-80
2023/09/26 06:42:29;;;;;;;;;;;;;;;12.42;97.44;102012.91;5003310;28;1205;-81
2023/09/26 06:44:54;;;;;;;;;;;;;;;12.43;97.48;102017.19;5017871;28;1241;-81
2023/09/26 06:47:20;;;;;;;;;;;;;;;12.43;97.54;102023.22;5007186;28;1263;-81
2023/09/26 06:49:46;;;;;;;;;;;;;;;12.46;97.78;102016.97;5004279;28;1278;-81
2023/09/26 06:52:11;;;;;;;;;;;;;;;12.49;97.49;102011.53;5024625;28;1287;-80
2023/09/26 06:54:37;;;;;;;;;;;;;;;12.53;97.87;102013.00;5005019;28;1653;-81
2023/09/26 06:57:02;;;;;;;;;;;;;;;12.55;97.71;102005.91;5009027;28;1961;-80
2023/09/26 06:59:27;;;;;;;;;;;;;;;12.58;97.75;102000.50;5025766;28;1229;-81
2023/09/26 07:01:53;;;;;;;;;;;;;;;12.61;97.99;101997.66;5022111;28;1328;-81
2023/09/26 07:04:18;;;;;;;;;;;;;;;12.63;98.03;102003.59;5029750;28;1427;-79
2023/09/26 07:06:45;;;;;;;;;;;;;;;12.65;98.37;102004.31;5031416;28;1138;-81
2023/09/26 07:09:12;;;;;;;;;;;;;;;12.69;98.46;102012.75;5021462;28;1185;-78
2023/09/26 07:11:37;;;;;;;;;;;;;;;12.72;98.41;102010.72;5037694;28;1304;-79
2023/09/26 07:14:04;;;;;;;;;;;;;;;12.71;98.53;102016.88;5022230;28;1220;-80
2023/09/26 07:16:33;;;;;;;;;;;;;;;12.74;98.38;102016.69;5035654;28;1953;-79
2023/09/26 07:18:58;;;;;;;;;;;;;;;12.76;98.68;102006.97;5038644;28;1590;-81
2023/09/26 07:21:23;;;;;;;;;;;;;;;12.82;98.32;102007.47;5039515;28;1264;-79
2023/09/26 07:23:49;;;;;;;;;;;;;;;12.84;98.52;102013.41;5031551;28;1614;-78
2023/09/26 07:26:20;;;;;;;;;;;;;;;12.87;98.59;102007.97;5031766;28;1186;-80
2023/09/26 07:28:45;;;;;;;;;;;;;;;12.93;98.72;102010.13;5028725;28;1222;-80
2023/09/26 07:31:12;;;;;;;;;;;;;;;12.99;98.56;102007.09;5016725;28;1313;-81
2023/09/26 07:33:37;;;;;;;;;;;;;;;13.02;98.38;102010.31;5019282;28;1252;-81
2023/09/26 07:36:03;;;;;;;;;;;;;;;13.06;98.45;102010.06;5015060;28;1934;-81
2023/09/26 07:38:29;;;;;;;;;;;;;;;13.08;98.56;102009.03;5018184;28;1332;-81
2023/09/26 07:40:55;;;;;;;;;;;;;;;13.09;98.58;102015.06;5013088;28;1178;-82
2023/09/26 07:43:20;;;;;;;;;;;;;;;13.13;98.52;102012.13;5017155;28;1308;-80
2023/09/26 07:45:45;;;;;;;;;;;;;;;13.18;98.50;102017.81;5005994;28;1227;-81
2023/09/26 07:48:10;;;;;;;;;;;;;;;13.23;98.37;102012.28;5007632;28;1248;-82
2023/09/26 07:50:35;;;;;;;;;;;;;;;13.24;98.57;102004.34;5013744;28;1198;-81
2023/09/26 07:53:04;;;;;;;;;;;;;;;13.30;99.10;102013.50;4998644;28;1222;-81
2023/09/26 07:55:29;;;;;;;;;;;;;;;13.34;98.48;102004.50;5005863;28;1342;-81
2023/09/26 07:57:54;;;;;;;;;;;;;;;13.39;98.76;102014.59;5007117;28;1930;-81
2023/09/26 08:00:19;;;;;;;;;;;;;;;13.45;99.08;102006.31;5003177;28;1162;-82
2023/09/26 08:02:45;;;;;;;;;;;;;;;13.53;99.16;102009.19;5008029;28;1078;-81
2023/09/26 08:05:10;;;;;;;;;;;;;;;13.60;99.35;101996.53;5009505;28;1451;-81
2023/09/26 08:07:38;;;;;;;;;;;;;;;13.66;98.81;102007.31;5012848;28;1090;-81
2023/09/26 08:10:03;;;;;;;;;;;;;;;13.72;99.10;102009.47;5007772;28;1266;-79
2023/09/26 08:12:29;;;;;;;;;;;;;;;13.77;99.18;101991.69;5017645;28;1537;-79
2023/09/26 08:14:55;;;;;;;;;;;;;;;13.82;99.05;101997.38;5011792;28;1904;-79
2023/09/26 08:17:20;;;;;;;;;;;;;;;13.87;99.12;101985.75;5016461;28;1957;-82
2023/09/26 08:19:45;;;;;;;;;;;;;;;13.94;98.99;101984.34;5017462;28;1110;-80
2023/09/26 08:22:10;;;;;;;;;;;;;;;14.00;99.04;101981.28;5014593;28;1103;-80
2023/09/26 08:24:36;;;;;;;;;;;;;;;14.12;98.87;101989.91;5015474;28;1225;-81
2023/09/26 08:27:01;;;;;;;;;;;;;;;14.19;98.48;101988.50;5010056;28;1285;-81
2023/09/26 08:29:26;;;;;;;;;;;;;;;14.29;98.55;101982.44;5010756;28;1261;-81
2023/09/26 08:31:51;;;;;;;;;;;;;;;14.38;98.43;101977.41;5009943;28;1015;-81
2023/09/26 08:34:17;;;;;;;;;;;;;;;14.47;98.70;101979.34;5017443;28;1513;-82
2023/09/26 08:36:42;;;;;;;;;;;;;;;14.52;98.71;101977.19;5015602;28;1886;-80
2023/09/26 08:39:08;;;;;;;;;;;;;;;14.55;98.76;101979.53;5016243;28;1265;-80
2023/09/26 08:41:35;;;;;;;;;;;;;;;14.57;98.21;101983.72;5022420;28;1483;-81
2023/09/26 08:44:00;;;;;;;;;;;;;;;14.61;98.17;101981.66;5019340;28;1201;-82
2023/09/26 08:46:25;;;;;;;;;;;;;;;14.65;98.12;101993.53;5020368;28;1214;-80
2023/09/26 08:48:52;;;;;;;;;;;;;;;14.67;97.72;102002.06;5007966;28;1366;-81
2023/09/26 08:51:17;;;;;;;;;;;;;;;14.71;97.52;101993.03;5016334;28;1221;-81
2023/09/26 08:53:42;;;;;;;;;;;;;;;14.73;97.04;101991.13;5013746;28;1130;-81
2023/09/26 08:56:08;;;;;;;;;;;;;;;14.78;97.18;101988.16;5008880;28;1894;-81
2023/09/26 08:58:33;;;;;;;;;;;;;;;14.83;98.20;101981.59;5013559;28;1263;-81
2023/09/26 09:00:59;;;;;;;;;;;;;;;14.88;97.30;101974.22;5020033;28;1171;-81
2023/09/26 09:03:24;;;;;;;;;;;;;;;14.91;96.99;101982.75;5003704;28;1320;-81
2023/09/26 09:05:49;;;;;;;;;;;;;;;14.94;97.22;101977.28;5009395;28;1181;-80
2023/09/26 09:08:19;;;;;;;;;;;;;;;14.98;96.89;101978.69;5011510;28;1249;-81
2023/09/26 09:11:11;;;;;;;;;;;;;;;15.04;96.87;101968.56;5024326;28;1025;-81
2023/09/26 09:13:40;;;;;;;;;;;;;;;15.14;97.11;101974.72;5019989;28;1374;-80
2023/09/26 09:16:13;;;;;;;;;;;;;;;15.25;96.74;101976.41;5010098;28;1883;-79
2023/09/26 09:18:39;;;;;;;;;;;;;;;15.32;96.56;101977.56;5006808;28;1261;-80
2023/09/26 09:21:30;;;;;;;;;;;;;;;15.36;96.46;101978.94;5011720;28;1454;-81
2023/09/26 09:23:56;;;;;;;;;;;;;;;15.47;96.96;101979.84;5005997;28;1107;-79
2023/09/26 09:26:22;;;;;;;;;;;;;;;15.53;96.74;101974.94;5010916;28;1213;-81
2023/09/26 09:28:48;;;;;;;;;;;;;;;15.60;96.57;101981.31;5018538;28;1276;-81
2023/09/26 09:31:15;;;;;;;;;;;;;;;15.70;96.58;101973.53;5010670;28;1159;-81
2023/09/26 09:33:44;;;;;;;;;;;;;;;15.80;96.23;101979.66;5021010;28;1224;-79
2023/09/26 09:36:10;;;;;;;;;;;;;;;15.91;96.19;101973.50;5016664;28;1959;-81
2023/09/26 09:38:35;;;;;;;;;;;;;;;16.06;96.50;101976.59;5010419;28;1213;-80
2023/09/26 09:41:03;;;;;;;;;;;;;;;16.19;95.57;101966.69;5016895;28;1231;-81
2023/09/26 09:43:28;;;;;;;;;;;;;;;16.28;95.44;101960.66;5012371;28;1212;-80
2023/09/26 09:45:55;;;;;;;;;;;;;;;16.37;94.81;101964.25;5014447;28;1290;-81
2023/09/26 09:48:22;;;;;;;;;;;;;;;16.46;95.01;101959.06;5011569;28;1197;-81
2023/09/26 09:50:49;;;;;;;;;;;;;;;16.60;94.52;101964.84;5017690;28;1309;-79
2023/09/26 09:53:18;;;;;;;;;;;;;;;16.73;94.65;101961.00;5013802;28;1209;-81
2023/09/26 09:55:46;;;;;;;;;;;;;;;16.81;93.61;101952.47;5011553;28;954;-81
2023/09/26 09:58:12;;;;;;;;;;;;;;;16.89;93.88;101949.97;5012687;28;1969;-80
2023/09/26 10:00:38;;;;;;;;;;;;;;;17.01;93.55;101947.22;5014039;28;1457;-81
2023/09/26 10:03:04;;;;;;;;;;;;;;;17.11;93.58;101950.66;5008758;28;1314;-81
2023/09/26 10:05:30;;;;;;;;;;;;;;;17.20;93.52;101953.28;5003242;28;1075;-80
2023/09/26 10:07:57;;;;;;;;;;;;;;;17.29;93.05;101941.09;5007136;28;1002;-81
2023/09/26 10:10:24;;;;;;;;;;;;;;;17.35;92.51;101940.53;5016867;28;1008;-81
2023/09/26 10:12:50;;;;;;;;;;;;;;;17.38;91.85;101950.75;5018292;28;1002;-81
2023/09/26 10:15:16;;;;;;;;;;;;;;;17.43;92.17;101948.53;5015698;28;1109;-81
2023/09/26 10:17:41;;;;;;;;;;;;;;;17.50;91.93;101948.78;5012406;28;1922;-81
2023/09/26 10:20:10;;;;;;;;;;;;;;;17.55;91.51;101943.09;5012480;28;1241;-81
2023/09/26 10:22:37;;;;;;;;;;;;;;;17.59;91.25;101945.28;5009893;28;1396;-81
2023/09/26 10:25:05;;;;;;;;;;;;;;;17.65;91.41;101952.56;5014019;28;1137;-81
2023/09/26 10:27:31;;;;;;;;;;;;;;;17.72;91.00;101953.72;5012387;28;1324;-81
2023/09/26 10:29:56;;;;;;;;;;;;;;;17.78;90.60;101962.81;5014374;28;1305;-81
2023/09/26 10:32:32;;;;;;;;;;;;;;;17.84;90.71;101956.97;5020621;28;1141;-81
2023/09/26 10:34:58;;;;;;;;;;;;;;;17.89;90.19;101956.50;5014132;28;1222;-80
2023/09/26 10:37:25;;;;;;;;;;;;;;;17.94;90.20;101957.72;5009345;28;1902;-78
2023/09/26 10:39:50;;;;;;;;;;;;;;;17.99;90.14;101945.00;5013015;28;1307;-81
2023/09/26 10:42:22;;;;;;;;;;;;;;;18.05;89.71;101941.78;5013920;28;1218;-79
2023/09/26 10:44:50;;;;;;;;;;;;;;;18.11;89.57;101926.41;5014469;28;1285;-81
2023/09/26 10:47:21;;;;;;;;;;;;;;;18.17;89.20;101931.06;5011570;28;1257;-82
2023/09/26 10:49:46;;;;;;;;;;;;;;;18.22;88.92;101927.03;5017328;28;1285;-80
2023/09/26 10:52:12;;;;;;;;;;;;;;;18.30;88.80;101931.56;5001776;28;1461;-82
2023/09/26 10:54:37;;;;;;;;;;;;;;;18.40;88.59;101932.31;5012890;28;1292;-81
2023/09/26 10:57:03;;;;;;;;;;;;;;;18.51;88.09;101939.13;5008674;28;1925;-81
2023/09/26 10:59:29;;;;;;;;;;;;;;;18.62;87.98;101945.97;5013524;28;1177;-81
2023/09/26 11:01:55;;;;;;;;;;;;;;;18.72;86.97;101941.50;5008820;28;1265;-81
2023/09/26 11:04:20;;;;;;;;;;;;;;;18.87;87.25;101944.41;5018490;28;1214;-81
2023/09/26 11:06:45;;;;;;;;;;;;;;;18.97;86.22;101945.16;5009095;28;1221;-81
2023/09/26 11:09:11;;;;;;;;;;;;;;;19.06;85.23;101949.50;5006475;28;1605;-80
2023/09/26 11:11:37;;;;;;;;;;;;;;;19.15;83.81;101947.75;5010531;28;1277;-81
2023/09/26 11:14:05;;;;;;;;;;;;;;;19.24;84.29;101952.09;5003439;28;1135;-81
2023/09/26 11:16:30;;;;;;;;;;;;;;;19.29;83.94;101939.31;5009074;28;1983;-81
2023/09/26 11:18:55;;;;;;;;;;;;;;;19.33;83.26;101938.03;5014208;28;1086;-81
2023/09/26 11:21:20;;;;;;;;;;;;;;;19.38;83.16;101933.09;5017070;28;1343;-82
2023/09/26 11:23:46;;;;;;;;;;;;;;;19.40;82.60;101931.16;5013231;28;1205;-82
2023/09/26 11:26:11;;;;;;;;;;;;;;;19.43;82.91;101925.56;5005473;28;1244;-80
2023/09/26 11:28:36;;;;;;;;;;;;;;;19.42;82.70;101918.66;5014891;28;1264;-81
2023/09/26 11:31:02;;;;;;;;;;;;;;;19.45;82.16;101923.63;5016143;28;1276;-81
2023/09/26 11:33:27;;;;;;;;;;;;;;;19.47;82.07;101931.34;5009086;28;996;-81
2023/09/26 11:35:53;;;;;;;;;;;;;;;19.48;82.07;101923.28;5008078;28;1540;-81
2023/09/26 11:38:18;;;;;;;;;;;;;;;19.51;81.22;101928.25;5010545;28;1969;-81
2023/09/26 11:40:44;;;;;;;;;;;;;;;19.56;81.50;101925.97;5008744;28;1540;-81
2023/09/26 11:43:09;;;;;;;;;;;;;;;19.67;81.13;101913.53;5012754;28;1276;-80
2023/09/26 11:45:34;;;;;;;;;;;;;;;19.72;80.50;101913.88;5025319;28;1294;-81
2023/09/26 11:48:01;;;;;;;;;;;;;;;19.75;80.65;101908.31;5012787;28;1233;-81
2023/09/26 11:50:27;;;;;;;;;;;;;;;19.76;79.25;101904.69;5006808;28;1371;-81
2023/09/26 11:52:56;;;;;;;;;;;;;;;19.78;79.63;101898.28;5005475;28;1253;-80
2023/09/26 11:55:22;;;;;;;;;;;;;;;19.84;79.82;101902.06;5007214;28;1126;-81
2023/09/26 11:57:50;;;;;;;;;;;;;;;19.87;79.32;101917.56;5009184;28;1959;-80
2023/09/26 12:00:16;;;;;;;;;;;;;;;19.88;79.09;101919.22;5012278;28;1338;-79
2023/09/26 12:02:45;;;;;;;;;;;;;;;19.93;78.90;101916.94;5013959;28;1168;-82
2023/09/26 12:05:11;;;;;;;;;;;;;;;20.03;78.86;101914.16;5023181;28;1247;-80
2023/09/26 12:07:37;;;;;;;;;;;;;;;20.08;78.90;101912.69;5007975;28;978;-80
2023/09/26 12:10:03;;;;;;;;;;;;;;;20.12;78.40;101919.28;5013280;28;1197;-80
2023/09/26 12:12:28;;;;;;;;;;;;;;;20.15;77.14;101916.34;5014303;28;1105;-81
2023/09/26 12:15:13;;;;;;;;;;;;;;;20.12;77.11;101905.28;5012333;28;1358;-80
2023/09/26 12:17:39;;;;;;;;;;;;;;;20.15;76.80;101895.25;5005143;28;1956;-82
2023/09/26 12:20:07;;;;;;;;;;;;;;;20.13;76.76;101886.72;5017329;28;1069;-81
2023/09/26 12:22:33;;;;;;;;;;;;;;;20.21;75.78;101890.34;5017717;28;1106;-78
2023/09/26 12:24:58;;;;;;;;;;;;;;;20.25;75.74;101896.94;5004911;28;956;-80
2023/09/26 12:27:23;;;;;;;;;;;;;;;20.31;75.75;101898.91;5007855;28;1211;-81
2023/09/26 12:29:49;;;;;;;;;;;;;;;20.37;75.36;101896.44;5015540;28;1444;-80
2023/09/26 12:32:14;;;;;;;;;;;;;;;20.43;74.82;101890.53;5026748;28;1310;-81
2023/09/26 12:34:39;;;;;;;;;;;;;;;20.46;74.29;101878.03;5004685;28;1434;-80
2023/09/26 12:37:04;;;;;;;;;;;;;;;20.52;74.66;101870.28;5006566;28;1965;-81
2023/09/26 12:39:30;;;;;;;;;;;;;;;20.60;74.45;101878.22;5005404;28;1385;-81
2023/09/26 12:41:55;;;;;;;;;;;;;;;20.66;74.03;101887.28;5012422;28;1184;-81